Fortunate — 3FLG6 — position and weather

sailwx.info

Track history (hours):
 
Tides and Currents Weather Stations Pressure Air Temp Water Temp Dewpoint Dewpoint Depression Visibility Wind Speed Wind Dir Waves Ship Positions

Fortunate

Last reported at 2017-May-07 01:08 UTC. Time now 2017-May-23 10:56 UTC.
Position N 01°54' E 102°19'.
Warning: this ship's position is 16 days out of date.

Length 275 m; draft 13 m.

Type: Ship (hazmat cat A). MMSI: 356708000.

Date/timePositionNaut miles runAvg speedWind from/ knotsBaromVisibWave heightAir tempDewpointWater temp
2017-May-07 01:08N 01°54' E 102°19'318.2
2017-May-07 00:56N 01°53' E 102°23'818.0
2017-May-07 00:28N 01°49' E 102°30'917.8
2017-May-06 23:59N 01°45' E 102°38'5218.2
2017-May-06 21:07N 01°17' E 103°22'219.9
2017-May-06 21:00N 01°15' E 103°24'918.9
2017-May-06 20:30N 01°13' E 103°33'612.9
2017-May-06 20:01N 01°12' E 103°39'5 9.4
2017-May-06 19:30N 01°15' E 103°43'4 8.5
2017-May-06 19:00N 01°16' E 103°47'0 0.5
2017-May-06 18:25N 01°16' E 103°47'0 0.0
2017-May-06 17:56N 01°16' E 103°47'0 0.1
2017-May-06 17:23N 01°16' E 103°47'0 0.0
2017-May-06 16:56N 01°16' E 103°47'0 0.0
2017-May-06 16:25N 01°16' E 103°47'0 0.0
2017-May-06 15:59N 01°16' E 103°47'0 0.0
2017-May-06 15:26N 01°16' E 103°47'0 0.0
2017-May-06 14:58N 01°16' E 103°47'0 0.1
2017-May-06 14:01N 01°16' E 103°47'0 0.0
2017-May-06 13:25N 01°16' E 103°47'0 0.0
2017-May-06 12:58N 01°16' E 103°47'0 0.1
2017-May-06 12:25N 01°16' E 103°47'0 0.1
2017-May-06 11:58N 01°16' E 103°47'0 0.0
2017-May-06 11:28N 01°16' E 103°47'0 0.1
2017-May-06 10:49N 01°16' E 103°47'0 0.2
2017-May-06 10:25N 01°16' E 103°47'0 0.1
2017-May-06 09:58N 01°16' E 103°47'0 0.0
2017-May-06 09:28N 01°16' E 103°47'0 0.1
2017-May-06 08:58N 01°16' E 103°47'0 0.1
2017-May-06 08:28N 01°16' E 103°47'0 0.1
2017-May-06 07:58N 01°16' E 103°47'0 0.0
2017-May-06 07:29N 01°16' E 103°47'0 0.0
2017-May-06 06:58N 01°16' E 103°47'0 0.0
2017-May-06 06:25N 01°16' E 103°47'0 0.0
2017-May-06 05:58N 01°16' E 103°47'0 0.1
2017-May-06 05:25N 01°16' E 103°47'0 0.1
2017-May-06 05:00N 01°16' E 103°47'0 0.1
2017-May-06 04:30N 01°16' E 103°47'0 0.1
2017-May-06 04:00N 01°16' E 103°47'0 0.1
2017-May-06 03:31N 01°16' E 103°47'0 0.0
2017-May-06 03:00N 01°16' E 103°47'0 0.0
2017-May-06 02:30N 01°16' E 103°47'0 0.1
2017-May-06 02:00N 01°16' E 103°47'0 0.1
2017-May-06 01:30N 01°16' E 103°47'0 0.4
2017-May-06 01:01N 01°16' E 103°47'1 2.5
2017-May-06 00:31N 01°15' E 103°47'4 8.6
2017-May-06 00:00N 01°12' E 103°50'3 6.9
2017-May-05 23:30N 01°13' E 103°54'5 8.8
2017-May-05 22:59N 01°15' E 103°58'  
2017-May-01 01:37N 23°45' E 118°05'518.7
2017-May-01 01:22N 23°48' E 118°09'718.6
2017-May-01 01:00N 23°53' E 118°15'918.7
2017-May-01 00:31N 23°59' E 118°22'918.6
2017-May-01 00:00N 24°04' E 118°31'1019.0
2017-Apr-30 23:30N 24°11' E 118°39'1218.9
2017-Apr-30 22:50N 24°19' E 118°49'619.0
2017-Apr-30 22:30N 24°23' E 118°54'1019.1
2017-Apr-30 21:59N 24°29' E 119°03'919.2
2017-Apr-30 21:30N 24°35' E 119°11'1019.0
2017-Apr-30 20:59N 24°41' E 119°19'918.9
2017-Apr-30 20:31N 24°46' E 119°27'1318.8
2017-Apr-30 19:49N 24°54' E 119°38'398 8.5
2017-Apr-28 20:49N 31°06' E 122°18'514.8
2017-Apr-28 20:30N 31°09' E 122°14'815.4
2017-Apr-28 20:00N 31°13' E 122°07'714.7
2017-Apr-28 19:30N 31°15' E 121°58'21 8.3
2017-Apr-28 16:56N 31°22' E 121°35'0 0.0
2017-Apr-28 13:44N 31°22' E 121°35'0 0.0
2017-Apr-28 12:44N 31°22' E 121°35'1 0.1
2017-Apr-28 04:28N 31°23' E 121°34'3 6.3
2017-Apr-28 03:58N 31°22' E 121°38'4 8.2
2017-Apr-28 03:26N 31°20' E 121°42'  
Track history (hours):
 
Tides and Currents Weather Stations Pressure Air Temp Water Temp Dewpoint Dewpoint Depression Visibility Wind Speed Wind Dir Waves Ship Positions

Fortunate

Last reported at 2017-May-07 01:08 UTC. Time now 2017-May-23 10:56 UTC.
Position N 01°54' E 102°19'.
Warning: this ship's position is 16 days out of date.

Length 275 m; draft 13 m.

Type: Ship (hazmat cat A). MMSI: 356708000.

Date/timePositionNaut miles runAvg speedWind from/ knotsBaromVisibWave heightAir tempDewpointWater temp
2017-May-07 01:08N 01°54' E 102°19'318.2
2017-May-07 00:56N 01°53' E 102°23'818.0
2017-May-07 00:28N 01°49' E 102°30'917.8
2017-May-06 23:59N 01°45' E 102°38'5218.2
2017-May-06 21:07N 01°17' E 103°22'219.9
2017-May-06 21:00N 01°15' E 103°24'918.9
2017-May-06 20:30N 01°13' E 103°33'612.9
2017-May-06 20:01N 01°12' E 103°39'5 9.4
2017-May-06 19:30N 01°15' E 103°43'4 8.5
2017-May-06 19:00N 01°16' E 103°47'0 0.5
2017-May-06 18:25N 01°16' E 103°47'0 0.0
2017-May-06 17:56N 01°16' E 103°47'0 0.1
2017-May-06 17:23N 01°16' E 103°47'0 0.0
2017-May-06 16:56N 01°16' E 103°47'0 0.0
2017-May-06 16:25N 01°16' E 103°47'0 0.0
2017-May-06 15:59N 01°16' E 103°47'0 0.0
2017-May-06 15:26N 01°16' E 103°47'0 0.0
2017-May-06 14:58N 01°16' E 103°47'0 0.1
2017-May-06 14:01N 01°16' E 103°47'0 0.0
2017-May-06 13:25N 01°16' E 103°47'0 0.0
2017-May-06 12:58N 01°16' E 103°47'0 0.1
2017-May-06 12:25N 01°16' E 103°47'0 0.1
2017-May-06 11:58N 01°16' E 103°47'0 0.0
2017-May-06 11:28N 01°16' E 103°47'0 0.1
2017-May-06 10:49N 01°16' E 103°47'0 0.2
2017-May-06 10:25N 01°16' E 103°47'0 0.1
2017-May-06 09:58N 01°16' E 103°47'0 0.0
2017-May-06 09:28N 01°16' E 103°47'0 0.1
2017-May-06 08:58N 01°16' E 103°47'0 0.1
2017-May-06 08:28N 01°16' E 103°47'0 0.1
2017-May-06 07:58N 01°16' E 103°47'0 0.0
2017-May-06 07:29N 01°16' E 103°47'0 0.0
2017-May-06 06:58N 01°16' E 103°47'0 0.0
2017-May-06 06:25N 01°16' E 103°47'0 0.0
2017-May-06 05:58N 01°16' E 103°47'0 0.1
2017-May-06 05:25N 01°16' E 103°47'0 0.1
2017-May-06 05:00N 01°16' E 103°47'0 0.1
2017-May-06 04:30N 01°16' E 103°47'0 0.1
2017-May-06 04:00N 01°16' E 103°47'0 0.1
2017-May-06 03:31N 01°16' E 103°47'0 0.0
2017-May-06 03:00N 01°16' E 103°47'0 0.0
2017-May-06 02:30N 01°16' E 103°47'0 0.1
2017-May-06 02:00N 01°16' E 103°47'0 0.1
2017-May-06 01:30N 01°16' E 103°47'0 0.4
2017-May-06 01:01N 01°16' E 103°47'1 2.5
2017-May-06 00:31N 01°15' E 103°47'4 8.6
2017-May-06 00:00N 01°12' E 103°50'3 6.9
2017-May-05 23:30N 01°13' E 103°54'5 8.8
2017-May-05 22:59N 01°15' E 103°58'  
2017-May-01 01:37N 23°45' E 118°05'518.7
2017-May-01 01:22N 23°48' E 118°09'718.6
2017-May-01 01:00N 23°53' E 118°15'918.7
2017-May-01 00:31N 23°59' E 118°22'918.6
2017-May-01 00:00N 24°04' E 118°31'1019.0
2017-Apr-30 23:30N 24°11' E 118°39'1218.9
2017-Apr-30 22:50N 24°19' E 118°49'619.0
2017-Apr-30 22:30N 24°23' E 118°54'1019.1
2017-Apr-30 21:59N 24°29' E 119°03'919.2
2017-Apr-30 21:30N 24°35' E 119°11'1019.0
2017-Apr-30 20:59N 24°41' E 119°19'918.9
2017-Apr-30 20:31N 24°46' E 119°27'1318.8
2017-Apr-30 19:49N 24°54' E 119°38'398 8.5
2017-Apr-28 20:49N 31°06' E 122°18'514.8
2017-Apr-28 20:30N 31°09' E 122°14'815.4
2017-Apr-28 20:00N 31°13' E 122°07'714.7
2017-Apr-28 19:30N 31°15' E 121°58'21 8.3
2017-Apr-28 16:56N 31°22' E 121°35'0 0.0
2017-Apr-28 13:44N 31°22' E 121°35'0 0.0
2017-Apr-28 12:44N 31°22' E 121°35'1 0.1
2017-Apr-28 04:28N 31°23' E 121°34'3 6.3
2017-Apr-28 03:58N 31°22' E 121°38'4 8.2
2017-Apr-28 03:26N 31°20' E 121°42'  

Dump ship's entire track history